ADDS METAR Data INFO
IDs: Format: Raw Decoded Include TAF

Data at: 1919 UTC 16 Aug 2017

KGTU 161856Z 20013G20KT 10SM SCT045 34/21 A2996 RMK AO2 SLP135 T03440211
KGTU 161756Z 17016KT 10SM CLR 33/22 A2998 RMK AO2 SLP141 T03330217 10333 20272 58001
KGTU 161656Z 17012KT 10SM SCT034 32/22 A2998 RMK AO2 SLP144 T03220217
KGTU 161556Z 19013KT 10SM FEW032 30/22 A2999 RMK AO2 SLP147 T03000222
KGTU 161456Z 18018G23KT 10SM FEW023 29/22 A2998 RMK AO2 SLP143 T02890222 50010
KGTU 161438Z 19018G24KT 10SM FEW023 SCT028 29/22 A2998 RMK AO2
KGTU 161414Z 19016KT 10SM SCT023 BKN028 28/23 A2998 RMK AO2
KGTU 161356Z 20016G20KT 10SM FEW019 28/23 A2998 RMK AO2 SLP144 T02780228
KGTU 161256Z 18011KT 10SM SCT018 27/23 A2997 RMK AO2 SLP138 T02720228
KGTU 161156Z 19011KT 10SM BKN020 27/23 A2995 RMK AO2 SLP130 T02720233 10278 20267 53012
KGTU 161056Z AUTO 19015G20KT 10SM BKN023 OVC029 27/23 A2993 RMK AO2 SLP126 T02720233
KGTU 161033Z AUTO 19015KT 10SM SCT022 BKN029 27/23 A2992 RMK AO2
KGTU 160956Z AUTO 18012G18KT 10SM FEW018 27/23 A2991 RMK AO2 SLP119 T02670233
KGTU 160946Z AUTO 16012G18KT 10SM SCT016 27/23 A2990 RMK AO2
KGTU 160856Z AUTO 17011G16KT 10SM BKN020 27/23 A2991 RMK AO2 SLP118 T02720233 50000
KGTU 160756Z AUTO 18013G16KT 10SM SCT020 27/23 A2992 RMK AO2 SLP121 T02720233
KGTU 160739Z AUTO 18011G18KT 10SM BKN020 27/23 A2993 RMK AO2
KGTU 160656Z AUTO 18014G21KT 10SM CLR 27/23 A2992 RMK AO2 SLP123 T02720233
KGTU 160556Z AUTO 16009KT 10SM CLR 28/23 A2991 RMK AO2 SLP119 T02780228 10356 20278 403610256 50011
KGTU 160456Z AUTO 16012G16KT 10SM CLR 28/22 A2991 RMK AO2 SLP120 T02830222
KGTU 160356Z AUTO 16014G20KT 10SM CLR 29/22 A2990 RMK AO2 SLP117 T02940222
KGTU 160156Z 16010G19KT 10SM CLR 32/21 A2984 RMK AO2 SLP094 T03220206
KGTU 160056Z 16005KT 10SM CLR 34/19 A2982 RMK AO2 SLP090 T03390194
KGTU 152356Z 16008KT 10SM CLR 36/19 A2981 RMK AO2 SLP085 T03560194 10361 20328 56008
KGTU 152256Z 19011KT 10SM CLR 36/20 A2982 RMK AO2 SLP088 T03610200
KGTU 152156Z 17009KT 10SM FEW060 36/21 A2982 RMK AO2 SLP087 T03560206
KGTU 152056Z 16011G17KT 10SM CLR 36/20 A2984 RMK AO2 SLP094 T03560200 58025
KGTU 151956Z 19012G18KT 10SM CLR 36/20 A2987 RMK AO2 SLP103 T03560200
KGTU 151856Z 20010G20KT 10SM CLR 34/21 A2989 RMK AO2 SLP110 T03440206
KGTU 151756Z 19013G19KT 10SM CLR 33/21 A2991 RMK AO2 SLP119 T03280211 10328 20256 58002
KGTU 151656Z 18016KT 10SM CLR 32/22 A2992 RMK AO2 SLP122 T03170217
KGTU 151556Z 20013KT 10SM CLR 30/22 A2993 RMK AO2 SLP127 T03000217
KGTU 151456Z 19013KT 10SM FEW023 28/22 A2992 RMK AO2 SLP122 T02830217 53005
KGTU 151356Z 18014KT 10SM CLR 27/22 A2991 RMK AO2 SLP120 T02720222
KGTU 151256Z 19012G17KT 10SM CLR 26/22 A2990 RMK AO2 SLP117 T02560222
KGTU 151156Z 17005KT 10SM SCT019 26/22 A2990 RMK AO2 SLP116 T02560222 10278 20256 51010
KGTU 151153Z 17007KT 10SM SCT019 26/22 A2990 RMK AO2
KGTU 151146Z AUTO 18009KT 10SM BKN019 26/22 A2990 RMK AO2
KGTU 151056Z AUTO 20010KT 10SM CLR 26/22 A2988 RMK AO2 SLP109 T02560222
KGTU 150856Z AUTO 20009KT 10SM CLR 27/23 A2987 RMK AO2 SLP106 T02670228 53001
KGTU 150756Z AUTO 18014KT 10SM CLR 27/23 A2986 RMK AO2 SLP103 T02670228 TSNO